Decoded Metar for KAFF (USAF ACADEMY/COS in CO, USA) (IATA:AFF) | Meteo·Mobile Aviation Weather
aviador You're here:

KAFF Decoded Metar

USAF ACADEMY/COS in CO, USA
Report Time2019-07-16 02:58:00
UTC Time2019-07-16 03:12:55
Flight Rules vfr VFR
Wind330° at 07 kt
W.Decomp.*RWY 34: 6.5 kt HW 2.5 kt LCW
RWY 26: 3.6 kt HW 6.0 kt RCW
Visibility9999 m
Phenomena:N/A
Clouds:N/A
Expected CloudBase > 2,000 ft AGL from Temp-Dew spread
CeilingNone
Temp18°C (ISA +16)
Dew Point13°C (73% RH)
AAT16.4°C
QNH1023 hPa
Density Alt8,314 ft
Elevation6,572 ft
Report Wrong Elevation
Raw Report
KAFF 160258Z AUTO 33007KT 10SM CLR 18/13 A3022 RMK AO2 SLP134
60000 T01800131 50004=

Extra information for KAFF:More info

Metar Taf Metar & Taf Last 4 Metars F.Rules Stats Wind Profile Meteogram Temp Stats Airport Information Weather charts Add Link Nearby VenuesMetar ALERT Operation Metar Decoded Social comments

AIRNAV info for KAFF